Time;durP1;ratioP1;P1;durP2;ratioP2;P2;SDS_P1;SDS_P2;PMS_P1;PMS_P2;Temp;Humidity;BMP_temperature;BMP_pressure;BME280_temperature;BME280_humidity;BME280_pressure;Samples;Min_cycle;Max_cycle;Signal;HPM_P1;HPM_P2
2022/09/17 00:01:52;;;;;;;1.17;0.70;;;;;;;12.16;100.00;100009.72;4981474;28;20199;-75
2022/09/17 00:04:17;;;;;;;2.33;1.40;;;;;;;12.16;100.00;100014.06;4988234;28;20588;-76
2022/09/17 00:06:43;;;;;;;1.27;1.00;;;;;;;12.13;100.00;100006.31;4979012;28;20296;-75
2022/09/17 00:09:08;;;;;;;2.33;1.00;;;;;;;12.08;100.00;100005.56;4986953;28;20684;-76
2022/09/17 00:11:36;;;;;;;1.63;1.10;;;;;;;12.03;100.00;100003.06;4982292;28;20193;-74
2022/09/17 00:14:02;;;;;;;1.47;1.10;;;;;;;11.99;100.00;100004.03;4985669;28;20176;-77
2022/09/17 00:16:48;;;;;;;1.23;0.93;;;;;;;11.94;100.00;100003.22;4982613;28;20824;-76
2022/09/17 00:19:17;;;;;;;0.97;0.90;;;;;;;11.86;100.00;100000.75;4977232;28;20209;-74
2022/09/17 00:21:42;;;;;;;1.53;0.80;;;;;;;11.82;100.00;100007.75;4985692;28;20193;-75
2022/09/17 00:24:10;;;;;;;0.87;0.80;;;;;;;11.81;100.00;100005.16;4984263;28;20185;-75
2022/09/17 00:26:35;;;;;;;1.53;0.70;;;;;;;11.81;100.00;100011.22;4991342;28;20356;-74
2022/09/17 00:29:01;;;;;;;0.80;0.80;;;;;;;11.81;100.00;100006.03;4982719;28;20296;-75
2022/09/17 00:31:28;;;;;;;1.60;1.10;;;;;;;11.82;100.00;100007.75;4985311;28;20293;-75
2022/09/17 00:33:53;;;;;;;1.17;0.70;;;;;;;11.82;100.00;100002.56;4990941;28;20188;-75
2022/09/17 00:36:20;;;;;;;1.00;0.80;;;;;;;11.83;100.00;100009.47;4977626;28;20202;-76
2022/09/17 00:39:05;;;;;;;1.80;0.93;;;;;;;11.84;100.00;100012.91;4986575;28;20312;-74
2022/09/17 00:41:32;;;;;;;1.27;0.87;;;;;;;11.83;100.00;100011.19;4979043;28;20194;-74
2022/09/17 00:44:00;;;;;;;1.60;0.90;;;;;;;11.83;100.00;100014.66;4991996;28;20189;-74
2022/09/17 00:46:37;;;;;;;1.07;0.83;;;;;;;11.83;100.00;100013.78;4987543;28;20213;-75
2022/09/17 00:49:09;;;;;;;0.80;0.77;;;;;;;11.83;100.00;100017.25;4983901;28;20201;-75
2022/09/17 00:51:39;;;;;;;2.30;0.63;;;;;;;11.83;100.00;100024.16;5007458;28;20500;-74
2022/09/17 00:54:08;;;;;;;1.23;0.70;;;;;;;11.84;100.00;100020.66;4983650;28;20665;-75
2022/09/17 00:56:36;;;;;;;2.10;1.00;;;;;;;11.86;100.00;100018.91;5000491;28;20197;-75
2022/09/17 00:59:02;;;;;;;1.00;0.80;;;;;;;11.86;100.00;100022.38;4997101;28;20226;-75
2022/09/17 01:01:29;;;;;;;0.90;0.63;;;;;;;11.85;100.00;100024.97;4985309;28;20212;-75
2022/09/17 01:03:54;;;;;;;1.40;0.67;;;;;;;11.86;100.00;100032.75;4993899;28;20185;-75
2022/09/17 01:06:42;;;;;;;1.40;0.80;;;;;;;11.88;100.00;100028.38;4987078;28;20240;-75
2022/09/17 01:09:28;;;;;;;0.90;0.80;;;;;;;11.88;100.00;100036.13;4994058;28;20976;-75
2022/09/17 01:12:22;;;;;;;2.93;1.00;;;;;;;11.88;100.00;100037.88;4989885;28;20224;-75
2022/09/17 01:15:01;;;;;;;0.80;0.63;;;;;;;11.86;100.00;100037.06;4986542;28;20200;-75
2022/09/17 01:17:49;;;;;;;1.33;1.00;;;;;;;11.87;100.00;100039.63;4988733;28;20241;-75
2022/09/17 01:20:36;;;;;;;1.37;1.00;;;;;;;11.85;100.00;100031.03;4990623;28;20217;-75
2022/09/17 01:23:04;;;;;;;2.13;1.00;;;;;;;11.88;100.00;100040.47;4988742;28;20189;-74
2022/09/17 01:25:43;;;;;;;2.43;0.90;;;;;;;11.89;100.00;100032.66;4982529;28;20197;-75
2022/09/17 01:28:40;;;;;;;2.03;0.90;;;;;;;11.89;100.00;100043.03;4979761;28;20205;-75
2022/09/17 01:31:36;;;;;;;1.30;0.80;;;;;;;11.85;100.00;100046.59;4984488;28;20196;-75
2022/09/17 01:34:15;;;;;;;1.63;0.90;;;;;;;11.81;100.00;100041.47;4979319;28;20343;-75
2022/09/17 01:36:55;;;;;;;1.03;0.87;;;;;;;11.80;100.00;100048.41;4989404;28;20183;-75
2022/09/17 01:39:27;;;;;;;1.53;0.80;;;;;;;11.80;100.00;100048.41;4985574;28;20924;-75
2022/09/17 01:42:20;;;;;;;2.03;0.90;;;;;;;11.79;100.00;100048.44;4985937;28;20196;-75
2022/09/17 01:45:01;;;;;;;2.73;0.80;;;;;;;11.76;100.00;100046.75;4995915;28;20272;-75
2022/09/17 01:47:38;;;;;;;1.00;0.90;;;;;;;11.73;100.00;100052.84;4985589;28;20207;-75
2022/09/17 01:50:10;;;;;;;1.57;0.80;;;;;;;11.67;100.00;100052.09;4980541;28;20296;-74
2022/09/17 01:52:40;;;;;;;1.47;0.83;;;;;;;11.65;100.00;100051.25;4977767;28;20205;-75
2022/09/17 01:55:10;;;;;;;1.73;0.90;;;;;;;11.58;100.00;100050.50;4978937;28;20189;-75
2022/09/17 01:57:44;;;;;;;0.87;0.80;;;;;;;11.55;100.00;100051.44;4987871;28;20247;-74
2022/09/17 02:00:13;;;;;;;1.47;0.90;;;;;;;11.53;100.00;100050.59;4982059;28;20213;-75
2022/09/17 02:02:52;;;;;;;1.33;1.10;;;;;;;11.48;100.00;100047.22;4981355;28;20218;-75
2022/09/17 02:05:33;;;;;;;1.20;0.80;;;;;;;11.46;100.00;100041.19;4982787;28;20186;-75
2022/09/17 02:08:07;;;;;;;1.50;0.80;;;;;;;11.40;100.00;100041.31;4981483;28;20704;-75
2022/09/17 02:10:38;;;;;;;1.17;0.93;;;;;;;11.35;100.00;100059.50;4983112;28;20209;-75
2022/09/17 02:13:13;;;;;;;0.83;0.83;;;;;;;11.33;100.00;100055.22;5004876;28;20268;-75
2022/09/17 02:15:48;;;;;;;1.07;0.80;;;;;;;11.29;100.00;100055.28;4982859;28;20200;-75
2022/09/17 02:18:22;;;;;;;1.63;1.00;;;;;;;11.26;100.00;100047.56;4982233;28;20259;-74
2022/09/17 02:20:55;;;;;;;1.03;0.70;;;;;;;11.24;100.00;100059.69;4986156;28;20212;-74
2022/09/17 02:23:27;;;;;;;2.33;1.10;;;;;;;11.19;100.00;100051.13;4983311;28;20188;-75
2022/09/17 02:25:58;;;;;;;1.17;0.90;;;;;;;11.17;100.00;100050.28;4977222;28;20761;-74
2022/09/17 02:28:37;;;;;;;4.50;1.20;;;;;;;11.13;100.00;100049.50;4989547;28;20992;-75
2022/09/17 02:31:02;;;;;;;1.67;1.00;;;;;;;11.09;100.00;100052.16;4990456;28;20198;-74
2022/09/17 02:33:29;;;;;;;1.50;0.93;;;;;;;11.07;100.00;100046.97;4982910;28;20197;-74
2022/09/17 02:35:54;;;;;;;2.40;1.17;;;;;;;11.05;100.00;100045.31;4984854;28;20189;-75
2022/09/17 02:38:23;;;;;;;1.97;1.20;;;;;;;11.02;100.00;100041.03;4979830;28;20192;-75
2022/09/17 02:40:57;;;;;;;1.57;1.00;;;;;;;11.00;100.00;100041.91;4979611;28;20737;-74
2022/09/17 02:43:28;;;;;;;1.53;0.90;;;;;;;10.95;100.00;100042.00;4982713;28;20845;-74
2022/09/17 02:45:56;;;;;;;1.70;1.03;;;;;;;10.86;100.00;100036.97;4980832;28;20197;-73
2022/09/17 02:48:54;;;;;;;3.10;1.07;;;;;;;10.79;100.00;100036.19;4986076;28;20696;-75
2022/09/17 02:51:44;;;;;;;3.23;1.30;;;;;;;10.70;100.00;100032.00;4990107;28;20181;-75
2022/09/17 02:54:09;;;;;;;2.63;1.40;;;;;;;10.62;100.00;100038.97;4989327;28;20398;-74
2022/09/17 02:57:01;;;;;;;1.77;1.20;;;;;;;10.57;100.00;100040.78;4982236;28;20192;-75
2022/09/17 02:59:30;;;;;;;1.37;1.27;;;;;;;10.46;100.00;100049.53;4979068;28;20233;-74
2022/09/17 03:02:02;;;;;;;2.37;1.30;;;;;;;10.41;100.00;100053.06;4979965;28;20188;-75
2022/09/17 03:04:29;;;;;;;2.33;1.27;;;;;;;10.35;100.00;100061.72;4985551;28;20204;-74
2022/09/17 03:06:55;;;;;;;1.20;1.07;;;;;;;10.32;100.00;100060.03;4986600;28;21189;-75
2022/09/17 03:09:20;;;;;;;1.87;1.17;;;;;;;10.30;100.00;100061.78;4978664;28;20285;-75
2022/09/17 03:11:46;;;;;;;1.70;0.97;;;;;;;10.29;100.00;100054.00;4986113;28;20650;-74
2022/09/17 03:14:11;;;;;;;1.87;1.40;;;;;;;10.27;100.00;100056.63;4976289;28;20279;-75
2022/09/17 03:16:37;;;;;;;1.80;1.10;;;;;;;10.22;100.00;100055.81;4983589;28;20721;-75
2022/09/17 03:19:02;;;;;;;1.90;1.20;;;;;;;10.21;100.00;100056.69;4981198;28;20263;-75
2022/09/17 03:21:28;;;;;;;3.57;1.50;;;;;;;10.20;100.00;100062.75;4985990;28;20196;-74
2022/09/17 03:23:53;;;;;;;2.00;1.50;;;;;;;10.15;100.00;100062.78;4987931;28;20221;-75
2022/09/17 03:26:18;;;;;;;2.73;1.40;;;;;;;10.12;100.00;100064.56;4982343;28;20560;-74
2022/09/17 03:28:44;;;;;;;1.53;1.40;;;;;;;10.10;100.00;100061.13;4978862;28;20217;-74
2022/09/17 03:31:09;;;;;;;2.00;1.30;;;;;;;10.11;100.00;100068.88;4989587;28;20185;-74
2022/09/17 03:33:34;;;;;;;2.60;1.43;;;;;;;10.15;100.00;100074.88;4985499;28;20189;-74
2022/09/17 03:36:00;;;;;;;2.07;1.40;;;;;;;10.13;100.00;100077.47;4984707;28;20854;-75
2022/09/17 03:38:25;;;;;;;2.03;1.40;;;;;;;10.16;100.00;100079.16;4975494;28;20246;-74
2022/09/17 03:41:02;;;;;;;2.13;1.30;;;;;;;10.20;100.00;100071.34;4982778;28;20608;-74
2022/09/17 03:43:27;;;;;;;1.37;1.27;;;;;;;10.25;100.00;100078.22;4988037;28;20679;-75
2022/09/17 03:45:52;;;;;;;1.77;1.20;;;;;;;10.30;100.00;100081.59;4983729;28;20280;-75
2022/09/17 03:48:18;;;;;;;1.30;1.20;;;;;;;10.32;100.00;100085.88;4982651;28;20259;-75
2022/09/17 03:50:43;;;;;;;2.77;1.70;;;;;;;10.34;100.00;100084.16;4983174;28;20696;-75
2022/09/17 03:53:08;;;;;;;1.77;1.30;;;;;;;10.34;100.00;100080.69;4981810;28;20276;-75
2022/09/17 03:55:37;;;;;;;1.60;1.40;;;;;;;10.36;100.00;100084.13;4982241;28;20216;-75
2022/09/17 03:58:02;;;;;;;2.50;1.67;;;;;;;10.37;100.00;100075.47;4984276;28;20197;-75
2022/09/17 04:00:27;;;;;;;3.10;1.50;;;;;;;10.37;100.00;100089.25;4993698;28;20212;-74
2022/09/17 04:02:53;;;;;;;1.57;1.30;;;;;;;10.40;100.00;100084.97;4984551;28;20203;-74
2022/09/17 04:05:18;;;;;;;1.87;1.47;;;;;;;10.44;100.00;100089.25;4987282;28;20189;-75
2022/09/17 04:07:43;;;;;;;2.50;1.33;;;;;;;10.45;100.00;100088.38;4989924;28;20219;-75
2022/09/17 04:10:09;;;;;;;2.53;1.63;;;;;;;10.49;100.00;100095.22;4983387;28;20215;-76
2022/09/17 04:12:35;;;;;;;3.50;1.73;;;;;;;10.49;100.00;100096.06;4983927;28;20798;-75
2022/09/17 04:15:00;;;;;;;3.37;1.67;;;;;;;10.51;100.00;100096.06;4984368;28;20280;-75
2022/09/17 04:17:26;;;;;;;4.00;1.77;;;;;;;10.57;100.00;100097.72;4982696;28;20188;-74
2022/09/17 04:19:52;;;;;;;2.67;1.43;;;;;;;10.58;100.00;100091.69;4983465;28;20216;-75
2022/09/17 04:22:18;;;;;;;3.07;1.50;;;;;;;10.58;100.00;100091.69;4990317;28;20193;-75
2022/09/17 04:24:43;;;;;;;2.57;1.50;;;;;;;10.56;100.00;100090.84;4989570;28;20215;-74
2022/09/17 04:27:08;;;;;;;2.63;1.57;;;;;;;10.53;100.00;100086.53;4988156;28;20242;-75
2022/09/17 04:29:33;;;;;;;1.73;1.60;;;;;;;10.46;100.00;100088.34;4983901;28;20339;-75
2022/09/17 04:31:59;;;;;;;2.00;1.50;;;;;;;10.42;100.00;100099.63;4993253;28;20276;-75
2022/09/17 04:34:24;;;;;;;1.90;1.60;;;;;;;10.42;100.00;100104.78;4993798;28;21020;-75
2022/09/17 04:36:50;;;;;;;1.77;1.67;;;;;;;10.45;100.00;100102.16;4990430;28;20967;-75
2022/09/17 04:39:16;;;;;;;1.50;1.40;;;;;;;10.47;100.00;100099.56;4992122;28;20219;-75
2022/09/17 04:41:41;;;;;;;2.43;1.97;;;;;;;10.52;100.00;100105.50;4989946;28;20267;-75
2022/09/17 04:44:06;;;;;;;3.47;2.63;;;;;;;10.52;100.00;100113.28;4988284;28;20292;-75
2022/09/17 04:46:32;;;;;;;3.83;2.00;;;;;;;10.51;100.00;100114.19;4979540;28;20311;-75
2022/09/17 04:48:57;;;;;;;2.37;1.93;;;;;;;10.51;100.00;100117.63;4985427;28;20217;-74
2022/09/17 04:51:23;;;;;;;2.13;1.77;;;;;;;10.53;100.00;100109.81;4989377;28;20652;-75
2022/09/17 04:53:48;;;;;;;2.80;1.97;;;;;;;10.53;100.00;100117.56;4986721;28;20181;-75
2022/09/17 04:56:13;;;;;;;4.57;1.90;;;;;;;10.49;100.00;100111.59;4979148;28;20240;-75
2022/09/17 04:58:39;;;;;;;3.63;2.20;;;;;;;10.44;100.00;100117.69;4983344;28;20193;-75
2022/09/17 05:01:04;;;;;;;3.23;2.00;;;;;;;10.42;100.00;100124.63;4986654;28;20218;-75
2022/09/17 05:03:30;;;;;;;2.47;1.87;;;;;;;10.41;100.00;100128.06;4999441;28;20204;-75
2022/09/17 05:05:55;;;;;;;3.17;2.30;;;;;;;10.40;100.00;100121.19;4985316;28;20708;-75
2022/09/17 05:08:22;;;;;;;2.17;1.80;;;;;;;10.40;100.00;100126.34;4985303;28;20711;-75
2022/09/17 05:10:50;;;;;;;3.00;1.90;;;;;;;10.43;100.00;100126.31;4986068;28;20215;-75
2022/09/17 05:13:16;;;;;;;2.23;1.67;;;;;;;10.47;100.00;100130.59;4991587;28;20192;-74
2022/09/17 05:15:41;;;;;;;2.77;1.90;;;;;;;10.48;100.00;100127.16;4986200;28;20535;-75
2022/09/17 05:18:07;;;;;;;2.03;1.90;;;;;;;10.51;100.00;100134.88;4983055;28;20225;-75
2022/09/17 05:20:32;;;;;;;2.70;2.00;;;;;;;10.54;100.00;100144.31;4984561;28;20705;-75
2022/09/17 05:22:58;;;;;;;2.83;2.27;;;;;;;10.54;100.00;100134.81;4986523;28;20189;-75
2022/09/17 05:25:23;;;;;;;3.53;2.70;;;;;;;10.57;100.00;100150.31;4980856;28;20247;-75
2022/09/17 05:27:50;;;;;;;3.90;1.90;;;;;;;10.56;100.00;100138.25;4987007;28;20213;-75
2022/09/17 05:30:16;;;;;;;2.10;1.90;;;;;;;10.58;100.00;100153.78;4987679;28;20217;-75
2022/09/17 05:32:42;;;;;;;3.50;2.30;;;;;;;10.63;100.00;100149.38;4989297;28;20657;-76
2022/09/17 05:35:08;;;;;;;3.17;2.20;;;;;;;10.63;100.00;100158.03;4990468;28;20572;-75
2022/09/17 05:37:33;;;;;;;3.73;2.20;;;;;;;10.65;100.00;100152.81;4996315;28;20208;-75
2022/09/17 05:39:59;;;;;;;3.23;2.17;;;;;;;10.65;100.00;100164.03;4989025;28;20229;-75
2022/09/17 05:42:24;;;;;;;2.00;1.80;;;;;;;10.65;100.00;100165.75;4985129;28;20193;-74
2022/09/17 05:44:50;;;;;;;4.07;1.90;;;;;;;10.65;100.00;100158.88;4987285;28;20205;-74
2022/09/17 05:47:15;;;;;;;4.53;2.40;;;;;;;10.69;100.00;100157.09;4987843;28;20213;-75
2022/09/17 05:49:41;;;;;;;2.77;2.27;;;;;;;10.68;100.00;100158.81;4995074;28;20769;-75
2022/09/17 05:52:06;;;;;;;3.90;2.00;;;;;;;10.67;100.00;100157.09;4989835;28;20687;-75
2022/09/17 05:54:31;;;;;;;5.10;2.67;;;;;;;10.68;100.00;100163.16;4986252;28;20192;-75
2022/09/17 05:56:57;;;;;;;3.07;2.30;;;;;;;10.70;100.00;100169.16;4993364;28;20247;-74
2022/09/17 05:59:22;;;;;;;3.37;2.33;;;;;;;10.66;100.00;100165.72;4986750;28;20331;-75
2022/09/17 06:01:49;;;;;;;3.50;2.40;;;;;;;10.67;100.00;100182.13;4980437;28;20203;-75
2022/09/17 06:04:16;;;;;;;4.27;2.50;;;;;;;10.65;100.00;100173.53;4991022;28;20608;-75
2022/09/17 06:06:42;;;;;;;3.10;2.70;;;;;;;10.63;100.00;100178.72;4988308;28;20703;-75
2022/09/17 06:09:07;;;;;;;3.00;2.37;;;;;;;10.65;100.00;100176.13;4995788;28;20232;-75
2022/09/17 06:11:33;;;;;;;3.43;2.70;;;;;;;10.69;100.00;100177.81;4990288;28;20419;-75
2022/09/17 06:13:59;;;;;;;2.40;2.20;;;;;;;10.72;100.00;100182.06;4995353;28;20739;-75
2022/09/17 06:16:24;;;;;;;3.20;2.50;;;;;;;10.74;100.00;100186.34;4994732;28;20188;-75
2022/09/17 06:18:51;;;;;;;4.83;2.93;;;;;;;10.78;100.00;100187.19;4988373;28;20214;-76
2022/09/17 06:21:17;;;;;;;4.37;2.50;;;;;;;10.79;100.00;100182.00;4988104;28;20236;-75
2022/09/17 06:23:43;;;;;;;3.13;2.70;;;;;;;10.77;100.00;100183.72;4991867;28;20196;-74
2022/09/17 06:26:09;;;;;;;5.53;3.23;;;;;;;10.81;100.00;100176.81;4978695;28;20215;-75
2022/09/17 06:28:35;;;;;;;4.67;3.20;;;;;;;10.78;100.00;100182.84;4991043;28;20189;-75
2022/09/17 06:31:02;;;;;;;3.53;3.03;;;;;;;10.79;100.00;100183.72;5005487;28;20206;-75
2022/09/17 06:33:29;;;;;;;3.70;3.07;;;;;;;10.75;100.00;100182.03;4996433;28;20185;-75
2022/09/17 06:36:04;;;;;;;3.60;3.10;;;;;;;10.77;100.00;100183.72;4990821;28;20266;-77
2022/09/17 06:38:31;;;;;;;4.63;3.63;;;;;;;10.80;100.00;100195.81;5000288;28;20198;-75
2022/09/17 06:40:57;;;;;;;4.90;3.30;;;;;;;10.79;100.00;100186.31;4991135;28;20197;-75
2022/09/17 06:43:22;;;;;;;3.30;3.00;;;;;;;10.80;100.00;100195.81;4988449;28;20218;-75
2022/09/17 06:45:58;;;;;;;3.60;3.00;;;;;;;10.82;100.00;100191.44;4973191;28;20224;-74
2022/09/17 06:48:26;;;;;;;2.90;2.70;;;;;;;10.87;100.00;100197.44;4985986;28;20209;-74
2022/09/17 06:50:53;;;;;;;3.77;2.90;;;;;;;10.91;100.00;100211.19;4988071;28;20212;-74
2022/09/17 06:53:19;;;;;;;3.67;3.00;;;;;;;10.96;100.00;100205.13;4987146;28;20188;-74
2022/09/17 06:55:46;;;;;;;3.90;3.20;;;;;;;11.03;100.00;100198.13;4987810;28;20614;-74
2022/09/17 06:58:12;;;;;;;5.80;3.17;;;;;;;11.11;100.00;100192.84;4997713;28;20185;-75
2022/09/17 07:00:37;;;;;;;4.03;3.63;;;;;;;11.16;100.00;100200.56;4994565;28;20223;-74
2022/09/17 07:03:02;;;;;;;3.77;3.00;;;;;;;11.24;100.00;100206.47;4994020;28;20224;-75
2022/09/17 07:05:29;;;;;;;3.63;3.33;;;;;;;11.38;100.00;100203.72;4992031;28;20220;-75
2022/09/17 07:07:55;;;;;;;4.43;3.67;;;;;;;11.51;100.00;100212.16;4985863;28;20672;-75
2022/09/17 07:10:25;;;;;;;4.60;3.70;;;;;;;11.63;100.00;100205.94;4994216;28;20215;-75
2022/09/17 07:12:51;;;;;;;3.80;3.50;;;;;;;11.79;100.00;100204.00;4986778;28;20189;-76
2022/09/17 07:15:16;;;;;;;3.20;2.90;;;;;;;12.10;100.00;100201.78;4986149;28;20184;-72
2022/09/17 07:17:43;;;;;;;4.13;2.90;;;;;;;12.54;100.00;100191.53;4987028;28;20896;-75
2022/09/17 07:20:09;;;;;;;3.30;2.80;;;;;;;12.99;100.00;100203.63;4986188;28;20217;-75
2022/09/17 07:22:35;;;;;;;2.87;2.57;;;;;;;13.29;100.00;100205.63;4989372;28;20214;-75
2022/09/17 07:25:00;;;;;;;3.07;2.80;;;;;;;13.44;100.00;100213.13;4984553;28;20226;-74
2022/09/17 07:27:27;;;;;;;3.30;3.00;;;;;;;13.58;100.00;100212.81;4994898;28;20301;-75
2022/09/17 07:29:54;;;;;;;3.70;2.73;;;;;;;13.68;100.00;100223.84;4983798;28;20326;-75
2022/09/17 07:32:20;;;;;;;4.47;3.00;;;;;;;13.63;100.00;100210.09;4989903;28;20294;-75
2022/09/17 07:34:45;;;;;;;4.93;3.40;;;;;;;13.64;100.00;100212.66;4987309;28;20269;-74
2022/09/17 07:37:10;;;;;;;4.13;3.43;;;;;;;13.65;100.00;100218.72;4982820;28;20202;-74
2022/09/17 07:39:36;;;;;;;3.73;2.83;;;;;;;13.66;100.00;100226.50;4976845;28;20208;-75
2022/09/17 07:42:03;;;;;;;5.17;3.10;;;;;;;13.73;100.00;100224.63;4981953;28;20188;-74
2022/09/17 07:44:28;;;;;;;7.63;3.40;;;;;;;13.61;100.00;100233.53;4982938;28;20288;-75
2022/09/17 07:46:53;;;;;;;3.33;3.00;;;;;;;13.38;100.00;100232.28;4981927;28;20218;-74
2022/09/17 07:49:19;;;;;;;3.00;2.60;;;;;;;13.28;100.00;100225.53;4982262;28;20216;-75
2022/09/17 07:51:44;;;;;;;3.93;3.07;;;;;;;13.30;100.00;100233.34;4983909;28;20193;-75
2022/09/17 07:54:09;;;;;;;3.17;2.60;;;;;;;13.36;100.00;100227.97;4978923;28;20560;-74
2022/09/17 07:56:35;;;;;;;2.77;2.57;;;;;;;13.52;100.00;100223.34;4984449;28;20199;-74
2022/09/17 07:59:02;;;;;;;4.00;2.63;;;;;;;13.70;100.00;100228.13;4986281;28;20291;-75
2022/09/17 08:01:28;;;;;;;3.10;2.57;;;;;;;13.83;100.00;100236.50;4985352;28;20663;-74
2022/09/17 08:03:53;;;;;;;2.00;1.90;;;;;;;13.95;100.00;100234.50;4987712;28;20277;-76
2022/09/17 08:06:22;;;;;;;3.53;2.80;;;;;;;14.08;100.00;100242.88;4987082;28;20194;-73
2022/09/17 08:08:48;;;;;;;4.13;2.70;;;;;;;14.02;100.00;100238.69;4984435;28;20238;-75
2022/09/17 08:11:16;;;;;;;4.73;2.80;;;;;;;13.89;100.00;100238.09;4985808;28;20185;-75
2022/09/17 08:13:42;;;;;;;3.37;2.70;;;;;;;13.76;100.00;100236.69;4984078;28;20190;-76
2022/09/17 08:16:12;;;;;;;2.70;2.50;;;;;;;13.77;100.00;100228.00;4979481;28;20244;-75
2022/09/17 08:18:37;;;;;;;4.10;2.13;;;;;;;13.87;100.00;100227.75;4981235;28;20682;-76
2022/09/17 08:21:05;;;;;;;2.67;2.43;;;;;;;13.93;100.00;100231.06;4974703;28;20211;-75
2022/09/17 08:23:32;;;;;;;2.87;2.07;;;;;;;14.01;100.00;100237.81;4984168;28;20662;-76
2022/09/17 08:25:59;;;;;;;3.60;2.80;;;;;;;14.16;100.00;100235.72;4984857;28;20211;-75
2022/09/17 08:28:26;;;;;;;3.83;2.37;;;;;;;14.23;100.00;100228.63;4985543;28;20205;-75
2022/09/17 08:30:53;;;;;;;3.00;2.50;;;;;;;14.37;100.00;100233.47;4983722;28;20266;-75
2022/09/17 08:33:19;;;;;;;2.50;1.90;;;;;;;14.61;100.00;100250.22;4980254;28;20191;-75
2022/09/17 08:35:52;;;;;;;3.57;2.20;;;;;;;14.80;100.00;100245.41;4979598;28;20201;-77
2022/09/17 08:38:17;;;;;;;3.83;2.40;;;;;;;14.92;100.00;100252.88;4970522;28;20182;-77
2022/09/17 08:40:53;;;;;;;2.90;2.27;;;;;;;15.06;100.00;100249.91;4982948;28;20716;-76
2022/09/17 08:43:19;;;;;;;2.87;1.93;;;;;;;15.23;100.00;100244.19;4975323;28;20195;-76
2022/09/17 08:45:51;;;;;;;2.40;2.00;;;;;;;15.38;100.00;100252.47;4979947;28;20190;-76
2022/09/17 08:48:17;;;;;;;1.87;1.63;;;;;;;15.41;100.00;100254.16;4987139;28;20204;-76
2022/09/17 08:50:43;;;;;;;2.73;2.10;;;;;;;15.40;98.80;100258.47;4982737;28;20220;-76
2022/09/17 08:53:38;;;;;;;4.03;2.00;;;;;;;15.23;98.42;100264.19;4984196;28;20188;-76
2022/09/17 08:56:14;;;;;;;3.70;1.90;;;;;;;14.99;99.23;100266.59;4997843;28;20238;-76
2022/09/17 08:58:55;;;;;;;4.83;2.30;;;;;;;14.86;98.65;100266.09;4975845;28;20574;-77
2022/09/17 09:01:59;;;;;;;3.50;2.17;;;;;;;14.74;99.47;100269.88;4978700;28;20241;-76
2022/09/17 09:04:34;;;;;;;3.23;1.90;;;;;;;14.74;99.43;100261.22;4963374;28;20201;-78
2022/09/17 09:07:11;;;;;;;3.17;2.07;;;;;;;14.84;100.00;100260.06;4986182;28;20818;-75
2022/09/17 09:09:47;;;;;;;2.43;1.80;;;;;;;15.12;100.00;100254.06;4974900;28;20775;-76
2022/09/17 09:12:23;;;;;;;3.03;2.00;;;;;;;15.55;98.73;100250.22;4979306;28;20706;-76
2022/09/17 09:15:01;;;;;;;4.43;2.10;;;;;;;15.78;96.45;100248.66;4993643;28;20298;-76
2022/09/17 09:17:37;;;;;;;2.30;1.80;;;;;;;15.86;96.32;100240.63;4986166;28;20717;-75
2022/09/17 09:20:04;;;;;;;3.93;1.83;;;;;;;16.05;95.96;100243.50;4979960;28;20254;-76
2022/09/17 09:22:49;;;;;;;2.77;1.53;;;;;;;16.17;94.14;100241.38;4988546;28;20194;-75
2022/09/17 09:25:22;;;;;;;5.53;2.37;;;;;;;16.23;93.38;100247.25;4994411;28;20190;-76
2022/09/17 09:28:01;;;;;;;3.97;2.00;;;;;;;16.22;91.91;100255.97;4985226;28;20355;-76
2022/09/17 09:30:47;;;;;;;3.83;1.87;;;;;;;16.18;92.59;100251.78;4979689;28;20217;-76
2022/09/17 09:33:16;;;;;;;3.17;2.00;;;;;;;16.01;93.92;100252.31;4977772;28;20715;-78
2022/09/17 09:35:43;;;;;;;3.73;2.00;;;;;;;15.96;93.63;100257.69;5003473;28;20193;-77
2022/09/17 09:38:08;;;;;;;2.87;2.10;;;;;;;15.88;94.15;100254.47;5004053;28;20223;-78
2022/09/17 09:40:50;;;;;;;2.60;1.73;;;;;;;15.92;94.86;100255.22;4989686;28;20299;-77
2022/09/17 09:43:22;;;;;;;4.47;2.10;;;;;;;16.11;94.39;100245.88;4988501;28;20190;-78
2022/09/17 09:46:13;;;;;;;3.53;1.90;;;;;;;16.25;94.35;100250.66;4986195;28;20192;-77
2022/09/17 09:48:57;;;;;;;3.23;1.60;;;;;;;16.45;93.26;100243.94;5003001;28;20217;-77
2022/09/17 09:51:49;;;;;;;2.97;1.97;;;;;;;16.59;92.62;100233.84;4986666;28;20189;-77
2022/09/17 09:54:31;;;;;;;2.47;1.80;;;;;;;16.84;91.87;100251.25;4986072;28;20187;-77
2022/09/17 09:57:06;;;;;;;1.97;1.77;;;;;;;17.02;92.03;100241.09;4983407;28;20688;-76
2022/09/17 09:59:32;;;;;;;4.13;1.80;;;;;;;17.06;91.70;100242.69;4985947;28;20867;-76
2022/09/17 10:01:58;;;;;;;2.73;1.90;;;;;;;16.99;92.36;100241.19;4976772;28;20181;-75
2022/09/17 10:04:25;;;;;;;3.73;1.80;;;;;;;16.89;92.10;100236.28;4997814;28;20242;-76
2022/09/17 10:07:08;;;;;;;2.97;1.60;;;;;;;16.90;92.48;100238.00;4978464;28;20213;-76
2022/09/17 10:09:36;;;;;;;4.50;1.67;;;;;;;17.00;92.79;100243.78;4980521;28;20205;-76
2022/09/17 10:12:14;;;;;;;2.90;1.77;;;;;;;17.02;92.57;100244.53;4980542;28;20184;-77
2022/09/17 10:14:40;;;;;;;2.90;1.90;;;;;;;16.98;92.66;100247.34;4979854;28;20212;-76
2022/09/17 10:17:25;;;;;;;2.47;1.67;;;;;;;17.01;93.01;100244.59;4987172;28;20181;-77
2022/09/17 10:20:12;;;;;;;2.63;1.47;;;;;;;17.12;92.02;100241.59;4984042;28;20537;-79
2022/09/17 10:22:38;;;;;;;2.50;1.80;;;;;;;17.19;89.90;100228.25;4985470;28;20196;-78
2022/09/17 10:25:17;;;;;;;1.87;1.40;;;;;;;17.28;90.04;100231.41;4978619;28;20558;-77
2022/09/17 10:27:46;;;;;;;3.13;1.60;;;;;;;17.31;87.95;100226.06;4977734;28;20426;-77
2022/09/17 10:30:11;;;;;;;2.03;1.60;;;;;;;17.18;88.82;100225.66;4988323;28;20259;-78
2022/09/17 10:32:36;;;;;;;4.00;1.80;;;;;;;17.00;89.03;100222.84;4987414;28;20191;-77
2022/09/17 10:35:14;;;;;;;4.43;1.93;;;;;;;16.72;89.97;100212.50;4981515;28;20201;-77
2022/09/17 10:37:51;;;;;;;2.50;1.77;;;;;;;16.34;90.33;100205.09;4993423;28;20187;-76
2022/09/17 10:40:19;;;;;;;2.93;1.60;;;;;;;16.11;91.49;100209.34;4982249;28;20224;-77
2022/09/17 10:42:45;;;;;;;2.03;1.50;;;;;;;16.05;92.36;100208.69;4983083;28;20210;-77
2022/09/17 10:45:25;;;;;;;2.70;1.50;;;;;;;16.19;92.73;100208.25;4973943;28;20200;-77
2022/09/17 10:47:51;;;;;;;2.63;1.70;;;;;;;16.41;92.61;100200.53;4971567;28;20308;-77
2022/09/17 10:50:19;;;;;;;4.63;1.70;;;;;;;16.49;92.44;100201.09;4978681;28;20299;-77
2022/09/17 10:52:52;;;;;;;4.00;2.00;;;;;;;16.53;90.39;100194.88;5008428;28;20196;-77
2022/09/17 10:55:31;;;;;;;3.50;1.57;;;;;;;16.58;91.02;100198.19;4982434;28;20200;-77
2022/09/17 10:58:06;;;;;;;3.33;1.73;;;;;;;16.99;90.67;100192.41;4985876;28;20664;-77
2022/09/17 11:00:46;;;;;;;2.97;1.63;;;;;;;17.26;90.36;100188.78;4977223;28;20291;-78
2022/09/17 11:03:40;;;;;;;3.13;1.70;;;;;;;17.34;90.37;100178.88;4977067;28;20285;-77
2022/09/17 11:06:26;;;;;;;3.03;1.50;;;;;;;17.21;90.00;100175.88;4979342;28;20193;-76
2022/09/17 11:09:14;;;;;;;2.73;1.77;;;;;;;17.00;90.44;100181.03;4980689;28;20216;-76
2022/09/17 11:11:45;;;;;;;3.93;1.57;;;;;;;16.99;91.23;100178.44;4978821;28;20219;-76
2022/09/17 11:14:48;;;;;;;2.67;1.60;;;;;;;16.99;91.54;100179.31;4984134;28;20184;-76
2022/09/17 11:17:42;;;;;;;2.70;1.50;;;;;;;17.00;91.31;100174.94;4974886;28;20233;-76
2022/09/17 11:20:17;;;;;;;3.50;1.47;;;;;;;17.05;90.64;100173.00;4979565;28;20209;-77
2022/09/17 11:22:51;;;;;;;2.10;1.40;;;;;;;16.96;91.45;100182.03;4976921;28;20609;-76
2022/09/17 11:25:35;;;;;;;3.03;1.67;;;;;;;16.86;93.85;100178.03;4982830;28;20239;-77
2022/09/17 11:28:23;;;;;;;4.30;2.00;;;;;;;16.83;94.46;100170.31;4978057;28;20205;-77
2022/09/17 11:31:06;;;;;;;4.63;1.70;;;;;;;17.02;92.68;100165.28;4985016;28;20301;-77
2022/09/17 11:33:38;;;;;;;3.60;1.60;;;;;;;17.30;90.98;100156.38;4983966;28;20197;-77
2022/09/17 11:36:16;;;;;;;3.40;1.40;;;;;;;17.45;89.84;100173.22;4989924;28;20212;-76